createdAt,value
2019-05-06T00:00:26.769Z,4.25
2019-05-06T00:02:56.245Z,7.17
2019-05-06T00:05:25.786Z,8.15
2019-05-06T00:07:55.437Z,4.78
2019-05-06T00:10:34.127Z,4.15
2019-05-06T00:13:04.910Z,3.83
2019-05-06T00:15:34.607Z,4.50
2019-05-06T00:18:04.683Z,4.00
2019-05-06T00:20:35.112Z,4.40
2019-05-06T00:23:16.353Z,4.40
2019-05-06T00:26:04.053Z,4.87
2019-05-06T00:28:35.101Z,4.50
2019-05-06T00:31:12.671Z,4.75
2019-05-06T00:33:37.111Z,4.80
2019-05-06T00:36:06.433Z,5.10
2019-05-06T00:38:37.201Z,5.55
2019-05-06T00:43:45.987Z,4.45
2019-05-06T00:46:15.484Z,4.97
2019-05-06T00:48:44.948Z,5.12
2019-05-06T00:51:15.374Z,5.00
2019-05-06T00:53:49.591Z,4.62
2019-05-06T00:56:18.900Z,5.60
2019-05-06T00:58:48.197Z,5.67
2019-05-06T01:01:26.950Z,5.53
2019-05-06T01:03:48.550Z,4.78
2019-05-06T01:06:17.855Z,5.37
2019-05-06T01:08:47.236Z,5.33
2019-05-06T01:11:16.570Z,5.22
2019-05-06T01:13:50.458Z,5.12
2019-05-06T01:16:20.916Z,5.50
2019-05-06T01:18:50.264Z,4.97
2019-05-06T01:21:19.642Z,4.85
2019-05-06T01:23:49.023Z,5.12
2019-05-06T01:26:18.359Z,5.22
2019-05-06T01:28:47.689Z,5.37
2019-05-06T01:31:17.053Z,5.72
2019-05-06T01:33:46.371Z,5.15
2019-05-06T01:36:15.672Z,5.78
2019-05-06T01:39:04.268Z,5.33
2019-05-06T01:41:41.583Z,5.17
2019-05-06T01:44:10.892Z,5.17
2019-05-06T01:46:40.216Z,5.10
2019-05-06T01:49:09.514Z,5.47
2019-05-06T01:51:38.837Z,5.87
2019-05-06T01:54:08.156Z,5.87
2019-05-06T01:56:37.482Z,5.42
2019-05-06T01:59:06.813Z,6.00
2019-05-06T02:01:36.113Z,5.25
2019-05-06T02:04:05.502Z,5.80
2019-05-06T02:06:34.800Z,5.28
2019-05-06T02:09:08.478Z,5.58
2019-05-06T02:11:38.052Z,5.95
2019-05-06T02:14:08.348Z,6.17
2019-05-06T02:16:38.609Z,5.92
2019-05-06T02:19:08.000Z,6.08
2019-05-06T02:21:38.968Z,6.17
2019-05-06T02:24:09.902Z,5.40
2019-05-06T02:26:39.254Z,5.70
2019-05-06T02:29:19.312Z,5.47
2019-05-06T02:32:16.159Z,5.42
2019-05-06T02:34:48.683Z,5.33
2019-05-06T02:37:19.677Z,5.97
2019-05-06T02:39:49.066Z,5.85
2019-05-06T02:42:18.391Z,5.85
2019-05-06T02:44:47.872Z,5.78
2019-05-06T02:47:24.622Z,5.40
2019-05-06T02:49:55.635Z,5.67
2019-05-06T02:52:24.927Z,5.75
2019-05-06T02:54:54.237Z,5.65
2019-05-06T02:57:23.954Z,5.05
2019-05-06T02:59:55.178Z,5.42
2019-05-06T03:02:38.959Z,5.70
2019-05-06T03:04:55.629Z,5.22
2019-05-06T03:07:24.950Z,5.53
2019-05-06T03:09:54.252Z,5.67
2019-05-06T03:12:23.613Z,5.30
2019-05-06T03:14:53.522Z,6.03
2019-05-06T03:17:23.618Z,4.08
2019-05-06T03:19:54.821Z,6.62
2019-05-06T03:22:34.453Z,6.40
2019-05-06T03:25:06.923Z,4.95
2019-05-06T03:27:35.509Z,5.22
2019-05-06T03:30:06.824Z,5.85
2019-05-06T03:32:38.198Z,5.20
2019-05-06T03:35:27.420Z,5.80
2019-05-06T03:37:58.669Z,5.62
2019-05-06T03:40:29.060Z,5.17
2019-05-06T03:42:58.356Z,4.90
2019-05-06T03:45:45.539Z,5.40
2019-05-06T03:48:16.473Z,6.00
2019-05-06T03:50:45.793Z,5.03
2019-05-06T03:53:16.137Z,5.33
2019-05-06T03:55:47.164Z,6.00
2019-05-06T03:58:17.613Z,4.65
2019-05-06T04:00:46.920Z,5.45
2019-05-06T04:03:16.229Z,5.62
2019-05-06T04:05:46.190Z,5.45
2019-05-06T04:08:20.079Z,5.60
2019-05-06T04:10:47.105Z,6.42
2019-05-06T04:13:16.397Z,7.37
2019-05-06T04:15:48.410Z,5.33
2019-05-06T04:18:19.488Z,7.35
2019-05-06T04:20:53.121Z,5.17
2019-05-06T04:23:43.644Z,6.72
2019-05-06T04:26:20.166Z,5.80
2019-05-06T04:28:49.574Z,5.55
2019-05-06T04:31:18.943Z,6.00
2019-05-06T04:34:06.379Z,5.80
2019-05-06T04:36:19.712Z,5.30
2019-05-06T04:38:48.999Z,5.53
2019-05-06T04:41:18.397Z,5.58
2019-05-06T04:43:47.971Z,4.87
2019-05-06T04:46:18.431Z,5.20
2019-05-06T04:48:47.815Z,5.55
2019-05-06T04:51:17.296Z,6.03
2019-05-06T04:53:48.146Z,6.17
2019-05-06T04:58:46.092Z,5.65
2019-05-06T05:01:15.938Z,5.95
2019-05-06T05:03:45.550Z,4.33
2019-05-06T05:06:15.017Z,6.42
2019-05-06T05:08:44.417Z,8.05
2019-05-06T05:11:33.267Z,6.10
2019-05-06T05:14:13.792Z,7.12
2019-05-06T05:16:53.784Z,6.22
2019-05-06T05:19:23.220Z,5.70
2019-05-06T05:21:54.247Z,6.72
2019-05-06T05:24:24.189Z,5.50
2019-05-06T05:26:53.500Z,5.87
2019-05-06T05:29:22.932Z,6.20
2019-05-06T05:31:52.948Z,6.12
2019-05-06T05:34:36.315Z,5.53
2019-05-06T05:36:53.873Z,5.83
2019-05-06T05:39:23.545Z,6.00
2019-05-06T05:41:54.613Z,6.62
2019-05-06T05:44:25.645Z,5.90
2019-05-06T05:46:55.087Z,6.03
2019-05-06T05:49:26.304Z,5.95
2019-05-06T05:51:55.671Z,6.95
2019-05-06T05:54:25.224Z,7.80
2019-05-06T05:57:13.860Z,6.90
2019-05-06T05:59:43.210Z,7.20
2019-05-06T06:02:13.037Z,6.80
2019-05-06T06:04:54.126Z,7.13
2019-05-06T06:07:13.950Z,7.83
2019-05-06T06:09:52.463Z,6.45
2019-05-06T06:12:23.021Z,6.25
2019-05-06T06:14:57.943Z,6.78
2019-05-06T06:17:43.904Z,6.70
2019-05-06T06:20:24.242Z,6.95
2019-05-06T06:22:54.891Z,7.08
2019-05-06T06:25:24.486Z,6.37
2019-05-06T06:27:53.853Z,5.90
2019-05-06T06:30:24.825Z,6.58
2019-05-06T06:32:54.950Z,6.83
2019-05-06T06:35:25.960Z,6.45
2019-05-06T06:37:57.082Z,6.62
2019-05-06T06:40:26.991Z,6.25
2019-05-06T06:42:58.011Z,5.90
2019-05-06T06:45:27.375Z,7.40
2019-05-06T06:47:56.860Z,6.15
2019-05-06T06:50:26.153Z,6.47
2019-05-06T06:52:55.466Z,6.58
2019-05-06T06:55:24.757Z,6.62
2019-05-06T06:58:06.240Z,6.00
2019-05-06T07:00:53.312Z,5.78
2019-05-06T07:03:27.829Z,5.75
2019-05-06T07:05:58.965Z,6.50
2019-05-06T07:08:36.533Z,11.63
2019-05-06T07:10:59.369Z,6.78
2019-05-06T07:13:28.768Z,6.90
2019-05-06T07:15:58.063Z,6.28
2019-05-06T07:18:27.380Z,6.40
2019-05-06T07:20:58.359Z,6.67
2019-05-06T07:23:32.716Z,7.12
2019-05-06T07:26:04.016Z,6.87
2019-05-06T07:28:34.953Z,6.37
2019-05-06T07:31:17.334Z,6.13
2019-05-06T07:33:35.348Z,6.25
2019-05-06T07:36:04.849Z,6.05
2019-05-06T07:38:34.449Z,6.20
2019-05-06T07:41:08.295Z,7.10
2019-05-06T07:43:42.174Z,6.25
2019-05-06T07:46:16.083Z,6.92
2019-05-06T07:48:45.384Z,7.87
2019-05-06T07:51:14.710Z,6.90
2019-05-06T07:53:44.229Z,7.58
2019-05-06T07:56:13.669Z,9.03
2019-05-06T07:58:43.561Z,8.45
2019-05-06T08:01:13.799Z,8.75
2019-05-06T08:03:43.404Z,9.83
2019-05-06T08:06:13.319Z,9.20
2019-05-06T08:08:43.547Z,7.90
2019-05-06T08:11:13.137Z,8.85
2019-05-06T08:13:43.435Z,9.53
2019-05-06T08:16:14.343Z,10.18
2019-05-06T08:18:43.668Z,9.95
2019-05-06T08:21:17.676Z,9.75
2019-05-06T08:23:48.624Z,9.48
2019-05-06T08:26:18.263Z,10.00
2019-05-06T08:28:47.701Z,9.57
2019-05-06T08:31:18.738Z,9.70
2019-05-06T08:33:48.050Z,9.60
2019-05-06T08:36:23.041Z,8.78
2019-05-06T08:39:05.910Z,8.93
2019-05-06T08:41:35.497Z,8.90
2019-05-06T08:44:05.533Z,8.85
2019-05-06T08:46:34.935Z,8.73
2019-05-06T08:49:05.273Z,9.18
2019-05-06T08:51:42.762Z,8.83
2019-05-06T08:54:13.849Z,9.43
2019-05-06T08:56:43.166Z,7.72
2019-05-06T08:59:14.046Z,7.65
2019-05-06T09:01:47.914Z,6.62
2019-05-06T09:04:17.460Z,6.55
2019-05-06T09:06:46.783Z,7.67
2019-05-06T09:09:16.107Z,7.15
2019-05-06T09:11:45.466Z,7.35
2019-05-06T09:14:14.821Z,8.20
2019-05-06T09:16:44.356Z,9.03
2019-05-06T09:19:13.907Z,9.25
2019-05-06T09:21:46.053Z,9.65
2019-05-06T09:24:14.296Z,9.20
2019-05-06T09:26:47.745Z,10.00
2019-05-06T09:29:18.685Z,9.65
2019-05-06T09:32:05.968Z,9.70
2019-05-06T09:34:39.360Z,9.70
2019-05-06T09:37:15.575Z,10.18
2019-05-06T09:39:46.425Z,10.18
2019-05-06T09:42:16.599Z,10.88
2019-05-06T09:44:50.219Z,10.90
2019-05-06T09:47:33.076Z,10.15
2019-05-06T09:50:07.296Z,10.78
2019-05-06T09:52:36.789Z,10.65
2019-05-06T09:55:15.291Z,9.83
2019-05-06T09:58:04.861Z,10.30
2019-05-06T10:00:36.229Z,11.10
2019-05-06T10:03:07.142Z,11.05
2019-05-06T10:05:36.540Z,11.28
2019-05-06T10:08:08.732Z,11.08
2019-05-06T10:10:38.135Z,11.33
2019-05-06T10:13:07.565Z,10.90
2019-05-06T10:15:37.029Z,11.68
2019-05-06T10:18:12.714Z,10.68
2019-05-06T10:20:43.579Z,10.93
2019-05-06T10:23:14.087Z,9.93
2019-05-06T10:25:44.365Z,10.90
2019-05-06T10:28:24.589Z,9.48
2019-05-06T10:30:55.552Z,11.45
2019-05-06T10:33:26.620Z,10.65
2019-05-06T10:35:58.729Z,11.50
2019-05-06T10:38:31.680Z,10.30
2019-05-06T10:41:07.568Z,9.85
2019-05-06T10:43:38.224Z,9.40
2019-05-06T10:46:07.516Z,8.93
2019-05-06T10:48:36.921Z,9.33
2019-05-06T10:51:07.888Z,9.63
2019-05-06T10:53:37.234Z,8.63
2019-05-06T10:56:14.105Z,8.10
2019-05-06T10:58:44.117Z,8.63
2019-05-06T11:01:18.411Z,7.60
2019-05-06T11:03:47.821Z,7.90
2019-05-06T11:06:17.117Z,7.83
2019-05-06T11:08:46.460Z,7.65
2019-05-06T11:11:31.259Z,7.95
2019-05-06T11:13:46.950Z,7.97
2019-05-06T11:16:17.041Z,6.30
2019-05-06T11:18:46.647Z,7.78
2019-05-06T11:21:15.993Z,7.92
2019-05-06T11:23:45.364Z,8.30
2019-05-06T11:26:14.791Z,7.42
2019-05-06T11:28:48.647Z,7.80
2019-05-06T11:31:19.625Z,7.15
2019-05-06T11:33:53.336Z,6.87
2019-05-06T11:36:42.679Z,6.28
2019-05-06T11:39:14.035Z,6.28
2019-05-06T11:41:59.675Z,5.70
2019-05-06T11:44:14.159Z,6.15
2019-05-06T11:46:43.524Z,6.43
2019-05-06T11:49:12.937Z,4.80
2019-05-06T11:51:43.506Z,5.43
2019-05-06T11:54:17.465Z,5.58
2019-05-06T11:56:50.914Z,6.42
2019-05-06T11:59:16.783Z,6.12
2019-05-06T12:01:47.829Z,4.75
2019-05-06T12:04:17.148Z,5.40
2019-05-06T12:06:46.469Z,4.90
2019-05-06T12:09:17.105Z,5.10
2019-05-06T12:11:46.793Z,5.03
2019-05-06T12:14:16.118Z,6.08
2019-05-06T12:16:45.542Z,6.00
2019-05-06T12:19:14.928Z,6.12
2019-05-06T12:21:44.227Z,6.33
2019-05-06T12:24:13.557Z,5.33
2019-05-06T12:26:43.069Z,6.08
2019-05-06T12:29:12.806Z,5.13
2019-05-06T12:31:42.454Z,5.78
2019-05-06T12:34:14.468Z,5.97
2019-05-06T12:36:43.065Z,5.75
2019-05-06T12:39:19.206Z,5.90
2019-05-06T12:41:59.079Z,5.10
2019-05-06T12:44:28.775Z,5.28
2019-05-06T12:47:03.837Z,5.05
2019-05-06T12:49:33.249Z,5.87
2019-05-06T12:52:02.547Z,5.58
2019-05-06T12:54:33.574Z,5.60
2019-05-06T12:57:03.482Z,5.95
2019-05-06T12:59:33.032Z,5.45
2019-05-06T13:02:02.853Z,4.75
2019-05-06T13:04:49.701Z,4.60
2019-05-06T13:07:03.429Z,5.67
2019-05-06T13:09:33.308Z,5.20
2019-05-06T13:12:03.905Z,5.53
2019-05-06T13:14:33.793Z,5.10
2019-05-06T13:17:03.088Z,5.20
2019-05-06T13:19:32.469Z,5.25
2019-05-06T13:22:03.555Z,5.12
2019-05-06T13:24:32.909Z,5.72
2019-05-06T13:27:02.774Z,5.60
2019-05-06T13:29:35.624Z,5.12
2019-05-06T13:32:06.764Z,4.65
2019-05-06T13:34:36.113Z,4.70
2019-05-06T13:37:05.698Z,4.40
2019-05-06T13:39:35.118Z,4.63
2019-05-06T13:42:04.558Z,4.92
2019-05-06T13:44:33.961Z,4.37
2019-05-06T13:47:04.104Z,4.70
2019-05-06T13:49:42.801Z,4.97
2019-05-06T13:52:12.671Z,4.70
2019-05-06T13:54:42.529Z,4.78
2019-05-06T13:57:12.626Z,4.95
2019-05-06T13:59:44.171Z,5.80
2019-05-06T14:02:17.866Z,5.78
2019-05-06T14:04:47.203Z,5.72
2019-05-06T14:07:16.524Z,4.90
2019-05-06T14:09:45.847Z,4.97
2019-05-06T14:12:15.240Z,6.17
2019-05-06T14:14:44.588Z,4.65
2019-05-06T14:17:13.955Z,5.10
2019-05-06T14:19:43.364Z,5.33
2019-05-06T14:22:13.727Z,5.28
2019-05-06T14:24:44.712Z,5.30
2019-05-06T14:27:15.652Z,5.80
2019-05-06T14:29:46.641Z,4.35
2019-05-06T14:32:16.001Z,5.12
2019-05-06T14:34:45.343Z,5.55
2019-05-06T14:37:14.639Z,5.40
2019-05-06T14:39:58.171Z,5.28
2019-05-06T14:42:22.584Z,5.10
2019-05-06T14:44:51.902Z,3.60
2019-05-06T14:47:23.397Z,4.60
2019-05-06T14:49:53.190Z,4.47
2019-05-06T14:52:22.875Z,4.72
2019-05-06T14:54:55.004Z,5.28
2019-05-06T14:57:25.315Z,3.90
2019-05-06T14:59:55.781Z,5.03
2019-05-06T15:02:27.240Z,4.22
2019-05-06T15:04:57.075Z,4.08
2019-05-06T15:07:26.405Z,5.00
2019-05-06T15:10:15.170Z,5.50
2019-05-06T15:12:28.112Z,3.72
2019-05-06T15:14:57.671Z,4.12
2019-05-06T15:17:26.998Z,4.53
2019-05-06T15:19:56.329Z,4.37
2019-05-06T15:22:25.618Z,4.80
2019-05-06T15:24:54.972Z,4.22
2019-05-06T15:27:24.340Z,4.70
2019-05-06T15:29:58.388Z,4.65
2019-05-06T15:32:29.360Z,4.50
2019-05-06T15:35:02.868Z,5.08
2019-05-06T15:37:36.628Z,4.35
2019-05-06T15:40:07.703Z,4.40
2019-05-06T15:42:37.023Z,4.53
2019-05-06T15:45:06.664Z,4.30
2019-05-06T15:47:36.972Z,4.22
2019-05-06T15:50:06.616Z,5.20
2019-05-06T15:52:35.944Z,4.47
2019-05-06T15:55:07.053Z,4.70
2019-05-06T15:57:36.391Z,4.83
2019-05-06T16:00:07.675Z,4.08
2019-05-06T16:02:37.107Z,4.42
2019-05-06T16:05:17.625Z,4.17
2019-05-06T16:07:38.029Z,3.70
2019-05-06T16:10:08.475Z,4.20
2019-05-06T16:12:37.961Z,3.90
2019-05-06T16:15:07.918Z,3.87
2019-05-06T16:17:56.575Z,3.83
2019-05-06T16:20:25.891Z,4.85
2019-05-06T16:22:56.944Z,4.10
2019-05-06T16:25:26.338Z,4.40
2019-05-06T16:27:56.988Z,4.42
2019-05-06T16:30:26.392Z,4.70
2019-05-06T16:32:55.692Z,4.53
2019-05-06T16:35:25.045Z,3.87
2019-05-06T16:37:54.447Z,4.47
2019-05-06T16:40:24.322Z,4.85
2019-05-06T16:42:54.646Z,4.53
2019-05-06T16:45:24.351Z,4.60
2019-05-06T16:47:53.716Z,4.40
2019-05-06T16:50:24.152Z,4.97
2019-05-06T16:52:53.502Z,4.78
2019-05-06T16:55:36.266Z,4.10
2019-05-06T16:58:09.089Z,4.10
2019-05-06T17:00:38.699Z,4.03
2019-05-06T17:03:23.071Z,4.60
2019-05-06T17:06:09.604Z,4.50
2019-05-06T17:08:38.935Z,4.87
2019-05-06T17:11:08.262Z,4.30
2019-05-06T17:13:38.005Z,4.58
2019-05-06T17:16:07.615Z,4.63
2019-05-06T17:18:36.904Z,4.45
2019-05-06T17:21:06.370Z,4.20
2019-05-06T17:23:35.687Z,5.00
2019-05-06T17:26:06.088Z,4.50
2019-05-06T17:28:43.056Z,4.62
2019-05-06T17:31:23.009Z,4.10
2019-05-06T17:34:12.821Z,4.40
2019-05-06T17:36:42.631Z,4.40
2019-05-06T17:39:12.600Z,4.53
2019-05-06T17:41:48.229Z,4.92
2019-05-06T17:44:13.588Z,4.92
2019-05-06T17:46:44.592Z,4.13
2019-05-06T17:49:20.878Z,5.05
2019-05-06T17:51:56.936Z,3.77
2019-05-06T17:54:26.279Z,4.45
2019-05-06T17:56:55.572Z,4.35
2019-05-06T17:59:24.908Z,4.00
2019-05-06T18:01:55.960Z,4.03
2019-05-06T18:04:25.329Z,4.28
2019-05-06T18:06:54.728Z,4.33
2019-05-06T18:09:24.065Z,3.87
2019-05-06T18:11:59.038Z,3.77
2019-05-06T18:14:24.692Z,3.60
2019-05-06T18:16:54.065Z,4.72
2019-05-06T18:19:23.371Z,4.72
2019-05-06T18:21:52.930Z,4.00
2019-05-06T18:24:23.027Z,4.03
2019-05-06T18:26:52.955Z,4.47
2019-05-06T18:29:22.411Z,4.40
2019-05-06T18:31:52.517Z,4.55
2019-05-06T18:34:23.412Z,5.50
2019-05-06T18:36:52.735Z,4.85
2019-05-06T18:39:22.446Z,4.47
2019-05-06T18:41:53.166Z,4.33
2019-05-06T18:46:53.034Z,4.80
2019-05-06T18:49:22.640Z,4.55
2019-05-06T18:51:54.103Z,5.15
2019-05-06T18:54:25.650Z,4.62
2019-05-06T18:56:54.171Z,4.55
2019-05-06T18:59:23.478Z,4.75
2019-05-06T19:01:53.900Z,5.87
2019-05-06T19:04:25.076Z,5.08
2019-05-06T19:07:09.316Z,5.70
2019-05-06T19:09:32.468Z,5.80
2019-05-06T19:12:03.559Z,5.28
2019-05-06T19:14:33.243Z,5.70
2019-05-06T19:17:02.956Z,5.72
2019-05-06T19:19:34.802Z,5.60
2019-05-06T19:22:03.348Z,5.45
2019-05-06T19:24:33.660Z,5.30
2019-05-06T19:27:03.171Z,6.05
2019-05-06T19:29:33.350Z,6.17
2019-05-06T19:32:03.093Z,6.33
2019-05-06T19:34:35.101Z,6.33
2019-05-06T19:37:03.776Z,6.15
2019-05-06T19:39:33.341Z,6.67
2019-05-06T19:42:05.068Z,6.10
2019-05-06T19:44:33.823Z,6.85
2019-05-06T19:47:03.221Z,6.22
2019-05-06T19:49:33.382Z,6.75
2019-05-06T19:52:03.322Z,7.10
2019-05-06T19:54:33.248Z,6.57
2019-05-06T19:57:03.064Z,6.58
2019-05-06T19:59:33.153Z,6.47
2019-05-06T20:02:05.162Z,6.83
2019-05-06T20:04:36.866Z,6.62
2019-05-06T20:07:07.824Z,6.40
2019-05-06T20:09:39.599Z,6.53
2019-05-06T20:12:12.262Z,6.75
2019-05-06T20:14:41.940Z,7.42
2019-05-06T20:17:12.918Z,6.85
2019-05-06T20:19:42.661Z,6.65
2019-05-06T20:22:12.995Z,7.62
2019-05-06T20:24:42.700Z,7.42
2019-05-06T20:27:13.404Z,7.42
2019-05-06T20:29:42.964Z,7.03
2019-05-06T20:32:12.336Z,6.60
2019-05-06T20:34:42.888Z,6.72
2019-05-06T20:37:12.951Z,7.03
2019-05-06T20:39:43.317Z,7.03
2019-05-06T20:42:12.963Z,6.85
2019-05-06T20:44:43.594Z,6.95
2019-05-06T20:47:13.265Z,6.92
2019-05-06T20:49:43.270Z,6.58
2019-05-06T20:52:12.760Z,6.87
2019-05-06T20:54:54.796Z,6.00
2019-05-06T20:57:24.199Z,6.47
2019-05-06T20:59:53.559Z,6.22
2019-05-06T21:02:25.594Z,7.00
2019-05-06T21:04:53.947Z,6.72
2019-05-06T21:07:23.284Z,6.40
2019-05-06T21:09:53.748Z,7.12
2019-05-06T21:12:23.093Z,6.20
2019-05-06T21:14:52.418Z,6.53
2019-05-06T21:17:22.887Z,6.97
2019-05-06T21:19:52.433Z,6.25
2019-05-06T21:22:21.883Z,6.90
2019-05-06T21:24:51.741Z,7.30
2019-05-06T21:27:22.981Z,7.13
2019-05-06T21:29:52.796Z,7.55
2019-05-06T21:32:22.162Z,7.90
2019-05-06T21:35:12.561Z,6.90
2019-05-06T21:37:42.446Z,7.37
2019-05-06T21:40:12.465Z,7.85
2019-05-06T21:42:43.106Z,7.25
2019-05-06T21:47:45.850Z,7.87
2019-05-06T21:50:13.656Z,8.03
2019-05-06T21:52:43.282Z,8.25
2019-05-06T21:55:13.469Z,8.80
2019-05-06T21:57:42.890Z,8.75
2019-05-06T22:00:16.998Z,10.25
2019-05-06T22:02:46.615Z,9.40
2019-05-06T22:05:16.238Z,9.35
2019-05-06T22:07:45.584Z,10.03
2019-05-06T22:10:15.116Z,9.30
2019-05-06T22:12:44.583Z,9.10
2019-05-06T22:15:14.040Z,9.78
2019-05-06T22:17:43.376Z,9.25
2019-05-06T22:20:12.673Z,10.43
2019-05-06T22:22:43.653Z,11.08
2019-05-06T22:25:13.197Z,10.05
2019-05-06T22:27:44.566Z,10.35
2019-05-06T22:30:13.875Z,9.93
2019-05-06T22:32:46.210Z,9.70
2019-05-06T22:35:16.681Z,9.98
2019-05-06T22:37:46.263Z,10.78
2019-05-06T22:40:18.273Z,9.73
2019-05-06T22:42:47.568Z,9.93
2019-05-06T22:45:17.740Z,10.63
2019-05-06T22:47:47.031Z,9.88
2019-05-06T22:50:16.427Z,9.78
2019-05-06T22:52:45.742Z,9.93
2019-05-06T22:55:15.284Z,10.40
2019-05-06T22:57:44.599Z,11.00
2019-05-06T23:00:17.136Z,10.63
2019-05-06T23:02:48.104Z,10.60
2019-05-06T23:05:17.414Z,11.12
2019-05-06T23:07:46.742Z,10.20
2019-05-06T23:10:16.140Z,10.98
2019-05-06T23:12:45.449Z,10.60
2019-05-06T23:15:14.856Z,10.78
2019-05-06T23:17:44.153Z,10.50
2019-05-06T23:20:13.626Z,10.70
2019-05-06T23:22:42.928Z,11.38
2019-05-06T23:25:13.807Z,12.43
2019-05-06T23:27:44.225Z,10.85
2019-05-06T23:30:13.871Z,11.80
2019-05-06T23:32:43.192Z,11.75
2019-05-06T23:35:12.969Z,12.45
2019-05-06T23:38:18.848Z,12.37
2019-05-06T23:41:24.728Z,12.85
2019-05-06T23:44:43.067Z,11.65
2019-05-06T23:47:38.249Z,12.40
2019-05-06T23:50:43.849Z,12.25
2019-05-06T23:53:49.532Z,11.40
2019-05-06T23:56:44.303Z,12.70
2019-05-06T23:59:16.009Z,12.05
